22. Mai 2022

Uhrzeit Code Wetter Temp. Sichtweite Wolken Wind METAR/SPECI
08:55
V
15 °C 10 km+ - 140°   140° 3 kt METAR EHGR 220655Z AUTO 14003KT 090V200 9999 ////// 15/11 Q1018 BLU
08:25
V
14 °C 10 km+ - Var   Var 2 kt METAR EHGR 220625Z AUTO VRB02KT 9999 ////// 14/10 Q1018 BLU
07:55
V
12 °C 10 km+ - Var   Var 2 kt METAR EHGR 220555Z AUTO VRB02KT 9999 ////// 12/10 Q1017 BLU
07:25
V
11 °C 10 km+ - Var   Var 2 kt METAR EHGR 220525Z AUTO VRB02KT 9999 ////// 11/10 Q1017 BLU
06:55
V
9 °C 10 km+ - Var   000° 0 kt METAR EHGR 220455Z AUTO 00000KT 9999 ////// 09/08 Q1017 BLU
06:25
V
8 °C 10 km+ - Var   000° 0 kt METAR EHGR 220425Z AUTO 00000KT 9999 ////// 08/08 Q1018 BLU
05:55
V
7 °C 10 km+ - Var   Var 1 kt METAR EHGR 220355Z AUTO VRB01KT 9999 ////// 07/07 Q1018 BLU
05:25
V
8 °C 10 km+ - Var   Var 1 kt METAR EHGR 220325Z AUTO VRB01KT 9999 ////// 08/08 Q1018 BLU
04:55
V
9 °C 10 km+ - Var   Var 1 kt METAR EHGR 220255Z AUTO VRB01KT 9999 ////// 09/08 Q1018 BLU
04:25
V
9 °C 10 km+ - 110°   110° 2 kt METAR EHGR 220225Z AUTO 11002KT 9999 ////// 09/08 Q1018 BLU
03:55
V
9 °C 10 km+ - 250°   250° 1 kt METAR EHGR 220155Z AUTO 25001KT 9999 ////// 09/08 Q1018 BLU
03:25
V
9 °C 10 km+ - 040°   040° 1 kt METAR EHGR 220125Z AUTO 04001KT 9999 ////// 09/09 Q1019 BLU
02:55
V
10 °C 10 km+ - 110°   110° 1 kt METAR EHGR 220055Z AUTO 11001KT 9999 ////// 10/09 Q1019 BLU
02:25
V
9 °C 10 km+ - 150°   150° 1 kt METAR EHGR 220025Z AUTO 15001KT 9999 ////// 09/08 Q1019 BLU
01:55
V
10 °C 10 km+ - Var   000° 0 kt METAR EHGR 212355Z AUTO 00000KT 9999 ////// 10/09 Q1019 BLU
01:25
V
9 °C 10 km+ - 090°   090° 1 kt METAR EHGR 212325Z AUTO 09001KT 9999 ////// 09/08 Q1019 BLU
00:55
V
9 °C 10 km+ - 140°   140° 1 kt METAR EHGR 212255Z AUTO 14001KT 9999 ////// 09/08 Q1020 BLU
00:25
V
10 °C 10 km+ - 260°   260° 1 kt METAR EHGR 212225Z AUTO 26001KT 9999 ////// 10/09 Q1020 BLU

21. Mai 2022

Uhrzeit Code Wetter Temp. Sichtweite Wolken Wind METAR/SPECI
23:55
V
10 °C 10 km+ - Var   000° 0 kt METAR EHGR 212155Z AUTO 00000KT 9999 ////// 10/09 Q1020 BLU
23:25
V
11 °C 10 km+ - Var   000° 0 kt METAR EHGR 212125Z AUTO 00000KT 9999 ////// 11/09 Q1020 BLU
22:55
V
12 °C 10 km+ - Var   Var 1 kt METAR EHGR 212055Z AUTO VRB01KT 9999 ////// 12/09 Q1020 BLU
22:25
V
12 °C 10 km+ - 240°   240° 1 kt METAR EHGR 212025Z AUTO 24001KT 9999 ////// 12/09 Q1020 BLU
21:55
V
13 °C 10 km+ - Var   Var 2 kt METAR EHGR 211955Z AUTO VRB02KT 9999 ////// 13/09 Q1020 BLU
21:25
V
16 °C 10 km+ - Var   Var 2 kt METAR EHGR 211925Z AUTO VRB02KT 9999 ////// 16/08 Q1020 BLU
20:55
V
16 °C 10 km+ - 320°   320° 5 kt METAR EHGR 211855Z AUTO 32005KT 290V010 9999 ////// 16/08 Q1020 BLU
20:25
V
17 °C 10 km+ - 300°   300° 5 kt METAR EHGR 211825Z AUTO 30005KT 250V340 9999 ////// 17/09 Q1020 BLU
19:55
V
17 °C 10 km+ - 310°   310° 6 kt METAR EHGR 211755Z AUTO 31006KT 260V360 9999 ////// 17/08 Q1020 BLU
19:25
V
18 °C 10 km+ - 320°   320° 6 kt METAR EHGR 211725Z AUTO 32006KT 270V360 9999 ////// 18/10 Q1020 BLU
18:55
V
18 °C 10 km+ - 300°   300° 7 kt METAR EHGR 211655Z AUTO 30007KT 260V350 9999 ////// 18/09 Q1020 BLU
18:25
V
18 °C 10 km+ - 300°   300° 7 kt METAR EHGR 211625Z AUTO 30007KT 240V340 9999 ////// 18/10 Q1020 BLU
17:55
V
19 °C 10 km+ - 300°   300° 8 kt METAR EHGR 211555Z AUTO 30008KT 260V330 9999 ////// 19/10 Q1021 BLU
17:25
V
18 °C 10 km+ - 280°   280° 8 kt METAR EHGR 211525Z AUTO 28008KT 230V330 9999 ////// 18/09 Q1021 BLU
16:55
V
19 °C 10 km+ - 290°   290° 9 kt METAR EHGR 211455Z AUTO 29009KT 250V340 9999 ////// 19/09 Q1021 BLU
16:25
V
19 °C 10 km+ - 290°   290° 9 kt METAR EHGR 211425Z AUTO 29009KT 250V350 9999 ////// 19/09 Q1021 BLU
15:55
V
19 °C 10 km+ - 270°   270° 10 kt METAR EHGR 211355Z AUTO 27010KT 220V320 9999 ////// 19/08 Q1021 BLU
15:25
V
19 °C 10 km+ - 270°   270° 12 kt METAR EHGR 211325Z AUTO 27012KT 240V320 9999 ////// 19/09 Q1021 BLU
14:55
V
18 °C 10 km+ - 270°   270° 11 kt METAR EHGR 211255Z AUTO 27011KT 220V310 9999 ////// 18/10 Q1021 BLU
14:25
V
18 °C 10 km+ - 260°   260° 11 kt METAR EHGR 211225Z AUTO 26011KT 220V300 9999 ////// 18/10 Q1022 BLU
13:55
V
18 °C 10 km+ - 270°   270° 12 kt METAR EHGR 211155Z AUTO 27012KT 230V300 9999 ////// 18/09 Q1022 BLU
13:25
V
18 °C 10 km+ - 270°   270° 11 kt METAR EHGR 211125Z AUTO 27011KT 230V310 9999 ////// 18/10 Q1022 BLU
12:55
V
17 °C 10 km+ - 250°   250° 12 kt METAR EHGR 211055Z AUTO 25012KT 200V300 9999 ////// 17/11 Q1022 BLU
12:25
V
18 °C 10 km+ - 270°   270° 13 kt METAR EHGR 211025Z AUTO 27013KT 230V310 9999 ////// 18/11 Q1021 BLU
11:55
V
16 °C 10 km+ - 250°   250° 11 kt METAR EHGR 210955Z AUTO 25011KT 200V310 9999 ////// 16/10 Q1021 BLU
11:25
V
16 °C 10 km+ - 240°   240° 11 kt METAR EHGR 210925Z AUTO 24011KT 200V300 9999 ////// 16/11 Q1021 BLU
10:55
V
16 °C 10 km+ - 260°   260° 10 kt METAR EHGR 210855Z AUTO 26010KT 220V300 9999 ////// 16/11 Q1021 BLU
10:25
V
16 °C 10 km+ - 240°   240° 12 kt METAR EHGR 210825Z AUTO 24012KT 210V280 9999 ////// 16/11 Q1021 BLU
09:55
V
15 °C 10 km+ - 240°   240° 13 kt METAR EHGR 210755Z AUTO 24013KT 9999 ////// 15/11 Q1021 BLU
09:25
V
14 °C 10 km+ - 240°   240° 10 kt METAR EHGR 210725Z AUTO 24010KT 210V290 9999 ////// 14/11 Q1021 BLU
08:55
V
14 °C 10 km+ - 240°   240° 9 kt METAR EHGR 210655Z AUTO 24009KT 200V280 9999 ////// 14/11 Q1021 BLU
08:25
V
14 °C 10 km+ - 230°   230° 9 kt METAR EHGR 210625Z AUTO 23009KT 200V270 9999 ////// 14/11 Q1021 BLU
07:55
V
13 °C 10 km+ - 230°   230° 8 kt METAR EHGR 210555Z AUTO 23008KT 190V270 9999 ////// 13/11 Q1020 BLU
07:25
V
12 °C 10 km+ - 230°   230° 8 kt METAR EHGR 210525Z AUTO 23008KT 200V260 9999 ////// 12/11 Q1020 BLU
06:55
V
12 °C 10 km+ - 230°   230° 7 kt METAR EHGR 210455Z AUTO 23007KT 210V270 9999 ////// 12/10 Q1020 BLU
06:25
V
11 °C 10 km+ - 240°   240° 8 kt METAR EHGR 210425Z AUTO 24008KT 210V280 9999 ////// 11/10 Q1020 BLU
05:55
V
12 °C 10 km+ - 230°   230° 8 kt METAR EHGR 210355Z AUTO 23008KT 210V270 9999 ////// 12/10 Q1020 BLU
05:25
V
12 °C 10 km+ - 240°   240° 10 kt METAR EHGR 210325Z AUTO 24010KT 200V290 9999 ////// 12/10 Q1019 BLU
04:55
V
12 °C 10 km+ - 240°   240° 10 kt METAR EHGR 210255Z AUTO 24010KT 200V270 9999 ////// 12/10 Q1019 BLU
04:25
V
12 °C 10 km+ - 240°   240° 10 kt METAR EHGR 210225Z AUTO 24010KT 190V270 9999 ////// 12/10 Q1019 BLU
03:55
V
12 °C 10 km+ - 230°   230° 10 kt METAR EHGR 210155Z AUTO 23010KT 200V260 9999 ////// 12/10 Q1019 BLU
03:25
V
12 °C 10 km+ - 220°   220° 9 kt METAR EHGR 210125Z AUTO 22009KT 190V270 9999 ////// 12/10 Q1019 BLU
02:55
V
12 °C 10 km+ - 240°   240° 10 kt METAR EHGR 210055Z AUTO 24010KT 200V270 9999 ////// 12/10 Q1020 BLU
02:25
V
12 °C 10 km+ - 230°   230° 8 kt METAR EHGR 210025Z AUTO 23008KT 210V270 9999 ////// 12/09 Q1020 BLU
01:55
V
11 °C 10 km+ - 230°   230° 6 kt METAR EHGR 202355Z AUTO 23006KT 190V260 9999 ////// 11/09 Q1019 BLU
01:25
V
11 °C 10 km+ - 220°   220° 5 kt METAR EHGR 202325Z AUTO 22005KT 190V260 9999 ////// 11/09 Q1020 BLU
00:55
V
10 °C 10 km+ - 200°   200° 3 kt METAR EHGR 202255Z AUTO 20003KT 170V230 9999 ////// 10/09 Q1019 BLU
00:25
V
11 °C 10 km+ - 220°   220° 4 kt METAR EHGR 202225Z AUTO 22004KT 190V250 9999 ////// 11/09 Q1019 BLU

20. Mai 2022

Uhrzeit Code Wetter Temp. Sichtweite Wolken Wind METAR/SPECI
23:55
V
11 °C 10 km+ - 230°   230° 5 kt METAR EHGR 202155Z AUTO 23005KT 200V270 9999 ////// 11/09 Q1019 BLU
23:25
V
11 °C 10 km+ - 230°   230° 6 kt METAR EHGR 202125Z AUTO 23006KT 190V260 9999 ////// 11/10 Q1019 BLU
22:55
V
11 °C 10 km+ - 240°   240° 6 kt METAR EHGR 202055Z AUTO 24006KT 9999 ////// 11/09 Q1019 BLU
22:25
V
12 °C 10 km+ - 250°   250° 8 kt METAR EHGR 202025Z AUTO 25008KT 230V290 9999 ////// 12/09 Q1019 BLU
21:55
V
12 °C 10 km+ - 260°   260° 9 kt METAR EHGR 201955Z AUTO 26009KT 230V290 9999 ////// 12/09 Q1019 BLU
21:25
V
13 °C 10 km+ - 260°   260° 10 kt METAR EHGR 201925Z AUTO 26010KT 220V300 9999 ////// 13/10 Q1018 BLU
20:55
V
13 °C 10 km+ - 250°   250° 7 kt METAR EHGR 201855Z AUTO 25007KT 210V300 9999 ////// 13/10 Q1018 BLU
20:25
V
13 °C 10 km+ - 250°   250° 9 kt METAR EHGR 201825Z AUTO 25009KT 220V290 9999 ////// 13/10 Q1017 BLU
19:55
V
13 °C 10 km+ - 260°   260° 11 kt METAR EHGR 201755Z AUTO 26011KT 9999 ////// 13/10 Q1017 BLU
19:25
V
13 °C 10 km+ - 280°   280° 12 kt METAR EHGR 201725Z AUTO 28012KT 250V310 9999 ////// 13/11 Q1017 BLU
18:55
V
13 °C 10 km+ - 280°   280° 13 kt METAR EHGR 201655Z AUTO 28013KT 240V320 9999 ////// 13/11 Q1016 BLU
18:25
V
14 °C 10 km+ - 280°   280° 16 26 kt METAR EHGR 201625Z AUTO 28016G26KT 250V310 9999 ////// 14/12 Q1016 BLU
17:55
V
15 °C 10 km+ - 290°   290° 11 kt METAR EHGR 201555Z AUTO 29011KT 260V350 9999 ////// 15/12 Q1015 BLU
17:25
V
15 °C 10 km+ - 310°   310° 14 kt METAR EHGR 201525Z AUTO 31014KT 260V350 9999 ////// 15/13 Q1014 BLU
16:55
V
14 °C 10 km+ - 290°   290° 21 36 kt METAR EHGR 201455Z AUTO 29021G36KT 260V330 9999 ////// 14/13 Q1014 REDZ BLU
16:38
M
17 °C 6 km - 270°   270° 15 28 kt METAR EHGR 201438Z AUTO 27015G28KT 240V320 6000 -RADZ ////// 17/16 Q1013 WHT
16:26
I
18 °C 3,6 km - 250°   250° 4 kt METAR EHGR 201426Z AUTO 25004KT 220V290 3600 SHRA +DZ ////// 18/17 Q1012 YLO
16:25
M
18 °C 5 km - 270°   270° 4 kt METAR EHGR 201425Z AUTO 27004KT 220V330 5000 -SHRA +DZ ////// 18/17 Q1012 WHT
16:13
M
18 °C 6 km - 300°   300° 3 kt METAR EHGR 201413Z AUTO 30003KT 270V340 6000 +DZ ////// 18/17 Q1012 WHT
16:03
L
18 °C 5 km - 310°   310° 4 kt METAR EHGR 201403Z AUTO 31004KT 260V350 5000 -SHRA VV/// //////CB 18/17 Q1012 WHT
15:56
L
17 °C 4,7 km - 290°   290° 7 kt METAR EHGR 201356Z AUTO 29007KT 260V350 4700 SHRA VV/// //////CB 17/17 Q1012 GRN
15:55
L
17 °C 3,2 km - 280°   280° 9 kt METAR EHGR 201355Z AUTO 28009KT 260V350 3200 +SHRA VV/// //////CB 17/17 Q1013 YLO
15:25
M
19 °C 5 km - 200°   200° 6 kt METAR EHGR 201325Z AUTO 20006KT 110V260 5000 SHRA +DZ ////// 19/16 Q1013 WHT
15:08
L
19 °C 9 km - 100°   100° 7 kt METAR EHGR 201308Z AUTO 10007KT 060V130 9000 HZ VV/// //////CB 19/17 Q1012 BLU
14:55
L
19 °C 8 km - 070°   070° 4 kt METAR EHGR 201255Z AUTO 07004KT 010V110 8000 HZ VV/// //////CB 19/16 Q1013 BLU
14:42
M
18 °C 7 km - 050°   050° 3 kt METAR EHGR 201242Z AUTO 05003KT 350V100 7000 -RA ////// 18/16 Q1013 WHT
14:27
L
18 °C 7 km - 080°   080° 4 kt METAR EHGR 201227Z AUTO 08004KT 360V120 7000 -RA VV/// //////CB 18/16 Q1013 WHT
14:25
L
18 °C 8 km - 100°   100° 6 kt METAR EHGR 201225Z AUTO 10006KT 030V140 8000 -RA VV/// //////CB 18/16 Q1013 RETSRA BLU
14:13
L
18 °C 7 km - 140°   140° 7 kt METAR EHGR 201213Z AUTO 14007KT 090V200 7000 SHRA VV/// //////CB 18/15 Q1014 WHT
14:07
L
18 °C 6 km - 130°   130° 10 kt METAR EHGR 201207Z AUTO 13010KT 090V180 6000 +SHRA VV/// //////CB 18/15 Q1014 WHT TEMPO VRB14G24KT 2500 SHRA TSRA SCT008 BKN030 BKN050CB
14:00
L
19 °C 4 km - 120°   120° 9 kt METAR EHGR 201200Z AUTO 12009KT 070V150 4000 TSRA VV/// //////CB 19/14 Q1013 GRN TEMPO VRB14G24KT 2500 SHRA TSRA SCT008 BKN030 BKN050CB
13:55
L
19 °C 10 km+ - 100°   100° 8 kt METAR EHGR 201155Z AUTO 10008KT 050V140 9999 VV/// //////CB 19/14 Q1013 BLU TEMPO VRB14G24KT 2500 SHRA TSRA SCT008 BKN030 BKN050CB
13:25
V
20 °C 10 km+ - 100°   100° 9 kt METAR EHGR 201125Z AUTO 10009KT 060V130 9999 ////// 20/13 Q1014 BLU BECMG VRB14G24KT 4000 SHRA SCT028 SCT050CB BKN060 TEMPO 2500 TSRA SCT008 BKN030 BKN050CB
13:03
V
19 °C 10 km+ - 090°   090° 9 kt METAR EHGR 201103Z AUTO 09009KT 050V140 9999 ////// 19/13 Q1015 BLU BECMG VRB14G24KT 4000 SHRA SCT028 SCT050CB BKN060 TEMPO 2500 TSRA SCT008 BKN030 BKN050CB
12:55
V
19 °C 10 km+ - 100°   100° 9 kt METAR EHGR 201055Z AUTO 10009KT 060V140 9999 ////// 19/13 Q1015 BLU NOSIG
12:25
V
20 °C 10 km+ - 110°   110° 8 kt METAR EHGR 201025Z AUTO 11008KT 050V140 9999 ////// 20/13 Q1016 BLU NOSIG
11:55
V
19 °C 10 km+ - 090°   090° 7 kt METAR EHGR 200955Z AUTO 09007KT 030V140 9999 ////// 19/12 Q1017 BLU NOSIG
11:25
V
19 °C 10 km+ - 090°   090° 8 kt METAR EHGR 200925Z AUTO 09008KT 040V140 9999 ////// 19/12 Q1018 BLU NOSIG
10:55
V
19 °C 10 km+ - 080°   080° 7 kt METAR EHGR 200855Z AUTO 08007KT 020V140 9999 ////// 19/11 Q1018 BLU NOSIG
10:25
V
18 °C 10 km+ - 090°   090° 5 kt METAR EHGR 200825Z AUTO 09005KT 020V140 9999 ////// 18/11 Q1019 BLU NOSIG
09:55
V
18 °C 10 km+ - 100°   100° 7 kt METAR EHGR 200755Z AUTO 10007KT 050V140 9999 ////// 18/11 Q1019 BLU NOSIG
09:25
V
17 °C 10 km+ - 090°   090° 5 kt METAR EHGR 200725Z AUTO 09005KT 050V150 9999 ////// 17/11 Q1020 BLU NOSIG
08:55
V
16 °C 10 km+ - 090°   090° 5 kt METAR EHGR 200655Z AUTO 09005KT 050V130 9999 ////// 16/11 Q1020 BLU NOSIG
Ältere Daten

Laden Sie unsere App herunter

Einfacher Zugriff auf das gesamte Flugwetter auf Ihrem Mobiltelefon und Tablet.
Mit vielen Funktionen, die auf der Website nicht verfügbar sind, wie Offline-Unterstützung und eine persönliche Flughafenliste.

Wir und Dritte verfolgen dein Internetverhalten auf unserer Website mit Cookies. Wenn du fortfährst, gehen wir davon aus, dass du mit unserer Cookie-Richtlinie einverstanden bist. Mehr erfahren